TimeEDT,TemperatureF,Dew PointF,Humidity,Sea Level PressureIn,VisibilityMPH,Wind Direction,Wind SpeedMPH,Gust SpeedMPH,PrecipitationIn,Events,Conditions,WindDirDegrees,DateUTC
12:14 AM,36.0,31.5,84,29.74,10.0,West,19.6,29.9,N/A,Snow,Light Snow,260,2013-10-22 04:14:00
12:34 AM,36.0,31.5,84,29.74,10.0,WNW,18.4,38.0,N/A,,Overcast,290,2013-10-22 04:34:00
12:55 AM,36.0,30.9,82,29.73,10.0,WNW,19.6,36.8,N/A,,Mostly Cloudy,290,2013-10-22 04:55:00
1:14 AM,37.0,29.1,73,29.73,10.0,West,21.9,32.2,N/A,,Mostly Cloudy,260,2013-10-22 05:14:00
1:34 AM,37.6,25.0,60,29.72,10.0,West,20.7,32.2,N/A,,Mostly Cloudy,260,2013-10-22 05:34:00
1:54 AM,37.8,28.0,68,29.72,10.0,West,21.9,34.5,N/A,,Overcast,260,2013-10-22 05:54:00
2:14 AM,37.9,27.5,66,29.72,10.0,West,15.0,31.1,N/A,,Overcast,260,2013-10-22 06:14:00
2:35 AM,38.1,27.0,64,29.71,10.0,WSW,15.0,24.2,N/A,,Overcast,250,2013-10-22 06:35:00
2:54 AM,37.6,30.0,74,29.71,10.0,WSW,16.1,27.6,N/A,,Overcast,250,2013-10-22 06:54:00
3:14 AM,38.5,29.8,71,29.71,10.0,WSW,19.6,26.5,N/A,,Overcast,250,2013-10-22 07:14:00
3:35 AM,39.2,30.9,72,29.69,10.0,WSW,17.3,26.5,N/A,,Overcast,240,2013-10-22 07:35:00
3:54 AM,39.4,31.6,74,29.69,10.0,WSW,25.3,33.4,N/A,,Unknown,250,2013-10-22 07:54:00
4:15 AM,37.6,34.7,89,29.69,4.0,WSW,13.8,28.8,N/A,Rain,Light Rain,250,2013-10-22 08:15:00
4:35 AM,38.3,35.2,89,29.68,5.0,WSW,18.4,35.7,N/A,Rain,Light Rain,250,2013-10-22 08:35:00
4:54 AM,39.2,36.1,89,29.67,7.0,West,28.8,35.7,N/A,Rain,Light Rain,260,2013-10-22 08:54:00
5:15 AM,40.1,36.5,87,29.67,7.0,West,27.6,35.7,N/A,Rain,Light Rain,260,2013-10-22 09:15:00
5:34 AM,40.5,34.7,80,29.67,10.0,West,27.6,39.1,N/A,,Overcast,260,2013-10-22 09:34:00
5:54 AM,40.6,35.1,80,29.68,5.0,West,24.2,33.4,N/A,Rain,Light Rain,270,2013-10-22 09:54:00
6:15 AM,39.6,36.3,88,29.68,7.0,West,29.9,36.8,N/A,Rain,Light Rain,270,2013-10-22 10:15:00
6:34 AM,39.7,36.5,88,29.69,7.0,West,18.4,35.7,N/A,Rain,Light Rain,280,2013-10-22 10:34:00
6:54 AM,40.6,35.8,83,29.68,10.0,WNW,19.6,29.9,N/A,,Mostly Cloudy,290,2013-10-22 10:54:00
7:15 AM,41.4,35.8,81,29.69,10.0,WNW,21.9,32.2,N/A,,Overcast,300,2013-10-22 11:15:00
7:34 AM,41.0,35.8,82,29.70,10.0,WNW,23.0,31.1,N/A,,Overcast,300,2013-10-22 11:34:00
7:54 AM,40.6,35.4,82,29.72,7.0,WNW,21.9,35.7,N/A,,Overcast,290,2013-10-22 11:54:00
8:15 AM,41.0,34.7,78,29.72,10.0,WNW,21.9,33.4,N/A,,Overcast,300,2013-10-22 12:15:00
8:34 AM,40.1,35.2,83,29.73,7.0,WNW,20.7,26.5,N/A,Rain,Light Rain,290,2013-10-22 12:34:00
8:55 AM,40.5,34.9,80,29.74,10.0,WNW,26.5,35.7,N/A,Rain,Light Rain,300,2013-10-22 12:55:00
9:15 AM,40.5,35.6,83,29.75,7.0,WNW,19.6,31.1,N/A,,Mostly Cloudy,290,2013-10-22 13:15:00
9:34 AM,40.5,35.2,82,29.76,5.0,WNW,19.6,32.2,N/A,,Light Drizzle,300,2013-10-22 13:34:00
9:55 AM,41.5,35.1,78,29.76,10.0,WNW,23.0,29.9,N/A,,Overcast,300,2013-10-22 13:55:00
10:15 AM,41.5,35.1,78,29.77,10.0,NW,21.9,29.9,N/A,,Overcast,310,2013-10-22 14:15:00
10:34 AM,42.4,35.4,76,29.78,10.0,NW,16.1,29.9,N/A,,Overcast,310,2013-10-22 14:34:00
10:55 AM,42.1,36.5,81,29.78,7.0,WNW,18.4,31.1,N/A,,Overcast,300,2013-10-22 14:55:00
11:14 AM,42.4,36.0,78,29.80,10.0,NW,19.6,33.4,N/A,,Mostly Cloudy,310,2013-10-22 15:14:00
11:35 AM,43.5,36.1,75,29.80,10.0,NW,16.1,24.2,N/A,,Mostly Cloudy,310,2013-10-22 15:35:00
11:54 AM,42.6,35.2,75,29.80,7.0,NW,16.1,28.8,N/A,,Mostly Cloudy,310,2013-10-22 15:54:00
12:15 PM,44.2,36.0,73,29.81,10.0,NW,20.7,28.8,N/A,,Mostly Cloudy,310,2013-10-22 16:15:00
12:35 PM,43.5,34.9,72,29.82,10.0,NW,17.3,25.3,N/A,,Scattered Clouds,320,2013-10-22 16:35:00
12:54 PM,43.0,35.2,74,29.82,10.0,NW,16.1,24.2,N/A,,Mostly Cloudy,310,2013-10-22 16:54:00
1:15 PM,40.6,36.3,85,29.82,7.0,WNW,13.8,18.4,N/A,Rain,Light Rain,300,2013-10-22 17:15:00
1:34 PM,40.8,37.4,88,29.82,4.0,NNW,15.0,20.7,N/A,Rain,Light Rain,330,2013-10-22 17:34:00
1:54 PM,43.5,37.0,78,29.82,10.0,NW,17.3,24.2,N/A,,Mostly Cloudy,310,2013-10-22 17:54:00
2:15 PM,41.0,37.4,87,29.82,5.0,NNW,12.7,26.5,N/A,Rain,Light Rain,340,2013-10-22 18:15:00
2:34 PM,41.5,37.4,85,29.82,10.0,NW,15.0,21.9,N/A,,Mostly Cloudy,320,2013-10-22 18:34:00
2:55 PM,42.3,36.9,81,29.82,10.0,NNW,12.7,19.6,N/A,,Overcast,340,2013-10-22 18:55:00
3:14 PM,43.3,36.1,76,29.82,10.0,NW,10.4,17.3,N/A,,Overcast,310,2013-10-22 19:14:00
3:34 PM,41.7,36.7,82,29.83,10.0,NW,15.0,26.5,N/A,,Overcast,320,2013-10-22 19:34:00
3:55 PM,41.0,36.0,82,29.83,10.0,WNW,11.5,-,N/A,Rain,Light Rain,300,2013-10-22 19:55:00
4:14 PM,41.9,35.6,78,29.83,10.0,NW,12.7,19.6,N/A,,Overcast,320,2013-10-22 20:14:00
4:34 PM,41.9,35.8,79,29.84,10.0,NNW,15.0,20.7,N/A,,Mostly Cloudy,340,2013-10-22 20:34:00
4:55 PM,42.1,35.1,76,29.84,10.0,NW,12.7,18.4,N/A,,Overcast,320,2013-10-22 20:55:00
5:14 PM,40.6,35.2,81,29.85,10.0,NNW,10.4,17.3,N/A,,Mostly Cloudy,340,2013-10-22 21:14:00
5:34 PM,42.1,35.4,77,29.86,10.0,NW,12.7,-,N/A,,Mostly Cloudy,320,2013-10-22 21:34:00
5:55 PM,41.9,34.2,74,29.86,10.0,NW,15.0,-,N/A,,Mostly Cloudy,320,2013-10-22 21:55:00
6:14 PM,42.1,33.4,71,29.86,10.0,NW,15.0,20.7,N/A,,Mostly Cloudy,320,2013-10-22 22:14:00
6:35 PM,41.4,34.5,77,29.87,10.0,NW,17.3,24.2,N/A,,Overcast,320,2013-10-22 22:35:00
6:54 PM,41.5,34.3,76,29.87,10.0,North,13.8,20.7,N/A,,Overcast,350,2013-10-22 22:54:00
7:14 PM,41.0,32.0,70,29.87,10.0,NNW,11.5,17.3,N/A,,Mostly Cloudy,340,2013-10-22 23:14:00
7:35 PM,41.2,33.1,73,29.87,10.0,NNW,13.8,20.7,N/A,,Mostly Cloudy,330,2013-10-22 23:35:00
7:54 PM,41.2,32.9,72,29.88,10.0,NNW,12.7,-,N/A,,Mostly Cloudy,340,2013-10-22 23:54:00
8:15 PM,41.0,31.6,69,29.88,10.0,NNW,10.4,21.9,N/A,,Mostly Cloudy,340,2013-10-23 00:15:00
8:35 PM,41.0,31.8,70,29.88,10.0,NNW,13.8,20.7,N/A,,Mostly Cloudy,340,2013-10-23 00:35:00
8:54 PM,41.2,32.4,71,29.88,10.0,North,16.1,20.7,N/A,,Overcast,350,2013-10-23 00:54:00
9:15 PM,41.2,32.2,70,29.88,10.0,NW,16.1,23.0,N/A,,Overcast,320,2013-10-23 01:15:00
9:34 PM,41.0,32.0,70,29.88,10.0,NNW,15.0,23.0,N/A,,Overcast,330,2013-10-23 01:34:00
9:54 PM,40.3,32.2,73,29.89,10.0,NW,11.5,21.9,N/A,,Mostly Cloudy,320,2013-10-23 01:54:00
10:15 PM,39.9,31.5,72,29.89,10.0,NNW,16.1,21.9,N/A,,Mostly Cloudy,330,2013-10-23 02:15:00
10:34 PM,40.1,31.3,71,29.89,10.0,NNW,12.7,21.9,N/A,,Mostly Cloudy,330,2013-10-23 02:34:00
10:54 PM,39.6,30.7,71,29.89,10.0,NW,10.4,23.0,N/A,,Mostly Cloudy,320,2013-10-23 02:54:00
11:14 PM,39.6,30.2,69,29.89,10.0,NW,15.0,20.7,N/A,,Mostly Cloudy,320,2013-10-23 03:14:00
11:34 PM,39.2,29.8,69,29.89,10.0,NW,12.7,-,N/A,,Mostly Cloudy,320,2013-10-23 03:34:00
11:55 PM,39.2,30.2,70,29.89,10.0,NW,13.8,18.4,N/A,,Mostly Cloudy,320,2013-10-23 03:55:00